sensor_id;sensor_type;location;lat;lon;timestamp;P1;durP1;ratioP1;P2;durP2;ratioP2
23044;SDS011;11690;51.716;23.066;2022-10-30T00:01:04;36.08;;;23.20;;
23044;SDS011;11690;51.716;23.066;2022-10-30T00:03:39;42.35;;;24.48;;
23044;SDS011;11690;51.716;23.066;2022-10-30T00:06:06;39.20;;;24.45;;
23044;SDS011;11690;51.716;23.066;2022-10-30T00:08:33;39.60;;;23.40;;
23044;SDS011;11690;51.716;23.066;2022-10-30T00:11:09;35.78;;;24.10;;
23044;SDS011;11690;51.716;23.066;2022-10-30T00:13:39;47.08;;;28.27;;
23044;SDS011;11690;51.716;23.066;2022-10-30T00:16:08;41.38;;;25.40;;
23044;SDS011;11690;51.716;23.066;2022-10-30T00:18:36;35.03;;;24.55;;
23044;SDS011;11690;51.716;23.066;2022-10-30T00:21:13;38.42;;;24.05;;
23044;SDS011;11690;51.716;23.066;2022-10-30T00:23:49;47.75;;;25.33;;
23044;SDS011;11690;51.716;23.066;2022-10-30T00:26:18;50.75;;;32.42;;
23044;SDS011;11690;51.716;23.066;2022-10-30T00:28:50;46.05;;;30.55;;
23044;SDS011;11690;51.716;23.066;2022-10-30T00:31:17;36.33;;;24.52;;
23044;SDS011;11690;51.716;23.066;2022-10-30T00:33:47;48.28;;;26.13;;
23044;SDS011;11690;51.716;23.066;2022-10-30T00:36:18;51.70;;;27.17;;
23044;SDS011;11690;51.716;23.066;2022-10-30T00:38:46;37.72;;;22.30;;
23044;SDS011;11690;51.716;23.066;2022-10-30T00:41:14;38.70;;;23.42;;
23044;SDS011;11690;51.716;23.066;2022-10-30T00:43:42;39.70;;;24.02;;
23044;SDS011;11690;51.716;23.066;2022-10-30T00:46:43;36.97;;;24.50;;
23044;SDS011;11690;51.716;23.066;2022-10-30T00:49:05;46.35;;;25.33;;
23044;SDS011;11690;51.716;23.066;2022-10-30T00:51:34;35.45;;;22.27;;
23044;SDS011;11690;51.716;23.066;2022-10-30T00:54:02;34.92;;;23.10;;
23044;SDS011;11690;51.716;23.066;2022-10-30T00:56:31;37.88;;;23.48;;
23044;SDS011;11690;51.716;23.066;2022-10-30T00:59:02;45.45;;;24.77;;
23044;SDS011;11690;51.716;23.066;2022-10-30T01:01:34;42.17;;;24.95;;
23044;SDS011;11690;51.716;23.066;2022-10-30T01:04:03;40.88;;;23.80;;
23044;SDS011;11690;51.716;23.066;2022-10-30T01:06:33;40.08;;;23.17;;
23044;SDS011;11690;51.716;23.066;2022-10-30T01:09:02;43.40;;;23.27;;
23044;SDS011;11690;51.716;23.066;2022-10-30T01:11:30;38.65;;;22.88;;
23044;SDS011;11690;51.716;23.066;2022-10-30T01:13:58;39.75;;;23.13;;
23044;SDS011;11690;51.716;23.066;2022-10-30T01:19:33;39.80;;;23.05;;
23044;SDS011;11690;51.716;23.066;2022-10-30T01:30:39;42.53;;;23.52;;
23044;SDS011;11690;51.716;23.066;2022-10-30T01:38:27;32.03;;;21.30;;
23044;SDS011;11690;51.716;23.066;2022-10-30T01:40:58;36.95;;;20.80;;
23044;SDS011;11690;51.716;23.066;2022-10-30T01:43:26;36.83;;;22.48;;
23044;SDS011;11690;51.716;23.066;2022-10-30T01:51:23;36.53;;;21.00;;
23044;SDS011;11690;51.716;23.066;2022-10-30T01:54:27;32.80;;;22.08;;
23044;SDS011;11690;51.716;23.066;2022-10-30T01:57:05;31.42;;;21.88;;
23044;SDS011;11690;51.716;23.066;2022-10-30T01:59:51;33.10;;;22.60;;
23044;SDS011;11690;51.716;23.066;2022-10-30T02:02:21;32.55;;;22.00;;
23044;SDS011;11690;51.716;23.066;2022-10-30T02:04:49;35.22;;;22.35;;
23044;SDS011;11690;51.716;23.066;2022-10-30T02:07:16;37.45;;;23.58;;
23044;SDS011;11690;51.716;23.066;2022-10-30T02:09:49;40.22;;;23.73;;
23044;SDS011;11690;51.716;23.066;2022-10-30T02:12:17;39.25;;;23.60;;
23044;SDS011;11690;51.716;23.066;2022-10-30T02:14:45;38.60;;;23.70;;
23044;SDS011;11690;51.716;23.066;2022-10-30T02:17:14;38.60;;;24.20;;
23044;SDS011;11690;51.716;23.066;2022-10-30T02:19:42;40.53;;;24.70;;
23044;SDS011;11690;51.716;23.066;2022-10-30T02:22:09;42.10;;;24.38;;
23044;SDS011;11690;51.716;23.066;2022-10-30T02:24:38;45.92;;;23.02;;
23044;SDS011;11690;51.716;23.066;2022-10-30T02:27:05;39.95;;;23.55;;
23044;SDS011;11690;51.716;23.066;2022-10-30T02:29:32;36.53;;;22.27;;
23044;SDS011;11690;51.716;23.066;2022-10-30T02:32:00;34.40;;;22.13;;
23044;SDS011;11690;51.716;23.066;2022-10-30T02:34:27;36.22;;;23.60;;
23044;SDS011;11690;51.716;23.066;2022-10-30T02:36:56;34.20;;;23.00;;
23044;SDS011;11690;51.716;23.066;2022-10-30T02:39:23;39.53;;;23.98;;
23044;SDS011;11690;51.716;23.066;2022-10-30T02:41:50;32.17;;;22.73;;
23044;SDS011;11690;51.716;23.066;2022-10-30T02:44:17;35.65;;;23.27;;
23044;SDS011;11690;51.716;23.066;2022-10-30T02:46:46;43.42;;;23.95;;
23044;SDS011;11690;51.716;23.066;2022-10-30T02:49:13;36.50;;;23.10;;
23044;SDS011;11690;51.716;23.066;2022-10-30T02:51:40;36.08;;;24.08;;
23044;SDS011;11690;51.716;23.066;2022-10-30T02:54:07;35.55;;;24.15;;
23044;SDS011;11690;51.716;23.066;2022-10-30T02:56:34;42.53;;;24.67;;
23044;SDS011;11690;51.716;23.066;2022-10-30T02:59:01;43.45;;;24.00;;
23044;SDS011;11690;51.716;23.066;2022-10-30T03:01:28;41.72;;;24.10;;
23044;SDS011;11690;51.716;23.066;2022-10-30T03:03:57;44.10;;;24.90;;
23044;SDS011;11690;51.716;23.066;2022-10-30T03:06:24;39.25;;;23.50;;
23044;SDS011;11690;51.716;23.066;2022-10-30T03:08:51;36.47;;;24.15;;
23044;SDS011;11690;51.716;23.066;2022-10-30T03:11:18;42.00;;;25.90;;
23044;SDS011;11690;51.716;23.066;2022-10-30T03:13:46;37.42;;;24.02;;
23044;SDS011;11690;51.716;23.066;2022-10-30T03:16:15;40.33;;;24.35;;
23044;SDS011;11690;51.716;23.066;2022-10-30T03:18:48;38.92;;;25.38;;
23044;SDS011;11690;51.716;23.066;2022-10-30T03:21:17;37.60;;;24.85;;
23044;SDS011;11690;51.716;23.066;2022-10-30T03:23:46;36.63;;;24.92;;
23044;SDS011;11690;51.716;23.066;2022-10-30T03:26:13;38.40;;;24.83;;
23044;SDS011;11690;51.716;23.066;2022-10-30T03:29:03;42.17;;;25.35;;
23044;SDS011;11690;51.716;23.066;2022-10-30T03:31:31;37.25;;;23.85;;
23044;SDS011;11690;51.716;23.066;2022-10-30T03:34:21;45.20;;;24.40;;
23044;SDS011;11690;51.716;23.066;2022-10-30T03:36:48;39.47;;;23.13;;
23044;SDS011;11690;51.716;23.066;2022-10-30T03:39:15;37.40;;;24.30;;
23044;SDS011;11690;51.716;23.066;2022-10-30T03:41:44;34.33;;;25.00;;
23044;SDS011;11690;51.716;23.066;2022-10-30T03:44:11;40.90;;;25.00;;
23044;SDS011;11690;51.716;23.066;2022-10-30T03:46:38;41.67;;;25.52;;
23044;SDS011;11690;51.716;23.066;2022-10-30T03:49:27;43.80;;;24.50;;
23044;SDS011;11690;51.716;23.066;2022-10-30T03:51:55;44.03;;;26.75;;
23044;SDS011;11690;51.716;23.066;2022-10-30T03:54:24;37.13;;;24.52;;
23044;SDS011;11690;51.716;23.066;2022-10-30T03:56:51;34.80;;;24.67;;
23044;SDS011;11690;51.716;23.066;2022-10-30T03:59:19;41.83;;;24.52;;
23044;SDS011;11690;51.716;23.066;2022-10-30T04:02:12;43.45;;;24.35;;
23044;SDS011;11690;51.716;23.066;2022-10-30T04:04:40;36.97;;;23.38;;
23044;SDS011;11690;51.716;23.066;2022-10-30T04:07:07;38.03;;;23.45;;
23044;SDS011;11690;51.716;23.066;2022-10-30T04:09:34;38.13;;;23.75;;
23044;SDS011;11690;51.716;23.066;2022-10-30T04:12:01;38.53;;;24.67;;
23044;SDS011;11690;51.716;23.066;2022-10-30T04:14:28;33.97;;;22.92;;
23044;SDS011;11690;51.716;23.066;2022-10-30T04:16:55;37.15;;;22.58;;
23044;SDS011;11690;51.716;23.066;2022-10-30T04:19:22;38.33;;;23.17;;
23044;SDS011;11690;51.716;23.066;2022-10-30T04:21:49;40.20;;;22.55;;
23044;SDS011;11690;51.716;23.066;2022-10-30T04:24:17;36.83;;;23.80;;
23044;SDS011;11690;51.716;23.066;2022-10-30T04:26:48;36.92;;;22.05;;
23044;SDS011;11690;51.716;23.066;2022-10-30T04:29:15;36.92;;;21.88;;
23044;SDS011;11690;51.716;23.066;2022-10-30T04:31:43;38.40;;;22.67;;
23044;SDS011;11690;51.716;23.066;2022-10-30T04:34:10;36.45;;;21.75;;
23044;SDS011;11690;51.716;23.066;2022-10-30T04:36:38;33.53;;;21.33;;
23044;SDS011;11690;51.716;23.066;2022-10-30T04:39:05;33.70;;;21.83;;
23044;SDS011;11690;51.716;23.066;2022-10-30T04:41:33;36.25;;;22.30;;
23044;SDS011;11690;51.716;23.066;2022-10-30T04:44:06;34.72;;;21.50;;
23044;SDS011;11690;51.716;23.066;2022-10-30T04:46:33;34.10;;;21.10;;
23044;SDS011;11690;51.716;23.066;2022-10-30T04:49:08;33.65;;;21.55;;
23044;SDS011;11690;51.716;23.066;2022-10-30T04:51:35;36.22;;;21.42;;
23044;SDS011;11690;51.716;23.066;2022-10-30T04:54:04;34.88;;;23.02;;
23044;SDS011;11690;51.716;23.066;2022-10-30T04:56:31;36.60;;;22.48;;
23044;SDS011;11690;51.716;23.066;2022-10-30T04:58:58;35.60;;;21.88;;
23044;SDS011;11690;51.716;23.066;2022-10-30T05:01:25;35.83;;;22.38;;
23044;SDS011;11690;51.716;23.066;2022-10-30T05:03:53;38.85;;;22.10;;
23044;SDS011;11690;51.716;23.066;2022-10-30T05:06:22;31.00;;;21.05;;
23044;SDS011;11690;51.716;23.066;2022-10-30T05:08:51;40.38;;;23.20;;
23044;SDS011;11690;51.716;23.066;2022-10-30T05:11:28;39.90;;;22.48;;
23044;SDS011;11690;51.716;23.066;2022-10-30T05:13:55;37.85;;;20.65;;
23044;SDS011;11690;51.716;23.066;2022-10-30T05:16:22;34.95;;;22.85;;
23044;SDS011;11690;51.716;23.066;2022-10-30T05:18:50;32.47;;;21.65;;
23044;SDS011;11690;51.716;23.066;2022-10-30T05:21:18;33.42;;;22.10;;
23044;SDS011;11690;51.716;23.066;2022-10-30T05:23:45;29.80;;;22.60;;
23044;SDS011;11690;51.716;23.066;2022-10-30T05:26:13;28.95;;;21.33;;
23044;SDS011;11690;51.716;23.066;2022-10-30T05:28:40;34.60;;;22.35;;
23044;SDS011;11690;51.716;23.066;2022-10-30T05:31:08;35.60;;;21.70;;
23044;SDS011;11690;51.716;23.066;2022-10-30T05:33:55;41.63;;;23.35;;
23044;SDS011;11690;51.716;23.066;2022-10-30T05:36:25;35.08;;;23.33;;
23044;SDS011;11690;51.716;23.066;2022-10-30T05:38:52;41.92;;;23.20;;
23044;SDS011;11690;51.716;23.066;2022-10-30T05:41:37;40.55;;;24.05;;
23044;SDS011;11690;51.716;23.066;2022-10-30T05:44:04;42.05;;;24.00;;
23044;SDS011;11690;51.716;23.066;2022-10-30T05:46:32;39.60;;;22.92;;
23044;SDS011;11690;51.716;23.066;2022-10-30T05:49:18;35.75;;;24.00;;
23044;SDS011;11690;51.716;23.066;2022-10-30T05:51:45;37.67;;;22.85;;
23044;SDS011;11690;51.716;23.066;2022-10-30T05:54:12;39.60;;;23.60;;
23044;SDS011;11690;51.716;23.066;2022-10-30T05:56:52;35.42;;;22.80;;
23044;SDS011;11690;51.716;23.066;2022-10-30T05:59:19;41.30;;;24.55;;
23044;SDS011;11690;51.716;23.066;2022-10-30T06:01:47;31.38;;;22.63;;
23044;SDS011;11690;51.716;23.066;2022-10-30T06:04:14;39.00;;;23.33;;
23044;SDS011;11690;51.716;23.066;2022-10-30T06:06:41;32.60;;;22.38;;
23044;SDS011;11690;51.716;23.066;2022-10-30T06:09:09;40.85;;;23.17;;
23044;SDS011;11690;51.716;23.066;2022-10-30T06:11:44;34.42;;;21.27;;
23044;SDS011;11690;51.716;23.066;2022-10-30T06:14:13;37.33;;;21.83;;
23044;SDS011;11690;51.716;23.066;2022-10-30T06:16:45;38.28;;;22.30;;
23044;SDS011;11690;51.716;23.066;2022-10-30T06:19:31;39.45;;;21.95;;
23044;SDS011;11690;51.716;23.066;2022-10-30T06:22:19;34.08;;;21.75;;
23044;SDS011;11690;51.716;23.066;2022-10-30T06:24:52;36.17;;;21.40;;
23044;SDS011;11690;51.716;23.066;2022-10-30T06:27:37;33.85;;;20.58;;
23044;SDS011;11690;51.716;23.066;2022-10-30T06:30:04;31.88;;;20.67;;
23044;SDS011;11690;51.716;23.066;2022-10-30T06:32:32;34.10;;;21.48;;
23044;SDS011;11690;51.716;23.066;2022-10-30T06:34:59;38.25;;;22.05;;
23044;SDS011;11690;51.716;23.066;2022-10-30T06:37:26;36.60;;;21.80;;
23044;SDS011;11690;51.716;23.066;2022-10-30T06:39:53;30.38;;;21.10;;
23044;SDS011;11690;51.716;23.066;2022-10-30T06:42:44;35.45;;;21.90;;
23044;SDS011;11690;51.716;23.066;2022-10-30T06:45:50;33.83;;;21.60;;
23044;SDS011;11690;51.716;23.066;2022-10-30T06:48:17;36.65;;;22.00;;
23044;SDS011;11690;51.716;23.066;2022-10-30T06:50:57;34.15;;;21.92;;
23044;SDS011;11690;51.716;23.066;2022-10-30T06:53:28;36.42;;;21.50;;
23044;SDS011;11690;51.716;23.066;2022-10-30T06:56:08;37.88;;;22.45;;
23044;SDS011;11690;51.716;23.066;2022-10-30T06:58:50;40.65;;;21.33;;
23044;SDS011;11690;51.716;23.066;2022-10-30T07:01:36;34.83;;;22.80;;
23044;SDS011;11690;51.716;23.066;2022-10-30T07:04:22;35.45;;;22.02;;
23044;SDS011;11690;51.716;23.066;2022-10-30T07:06:49;30.55;;;20.85;;
23044;SDS011;11690;51.716;23.066;2022-10-30T07:09:19;35.75;;;20.63;;
23044;SDS011;11690;51.716;23.066;2022-10-30T07:11:47;33.83;;;21.65;;
23044;SDS011;11690;51.716;23.066;2022-10-30T07:14:18;38.22;;;21.83;;
23044;SDS011;11690;51.716;23.066;2022-10-30T07:16:54;33.38;;;21.02;;
23044;SDS011;11690;51.716;23.066;2022-10-30T07:19:22;38.80;;;21.20;;
23044;SDS011;11690;51.716;23.066;2022-10-30T07:21:50;37.92;;;19.98;;
23044;SDS011;11690;51.716;23.066;2022-10-30T07:24:18;38.05;;;21.85;;
23044;SDS011;11690;51.716;23.066;2022-10-30T07:27:03;35.25;;;20.73;;
23044;SDS011;11690;51.716;23.066;2022-10-30T07:29:35;35.72;;;21.17;;
23044;SDS011;11690;51.716;23.066;2022-10-30T07:32:22;35.95;;;21.05;;
23044;SDS011;11690;51.716;23.066;2022-10-30T07:35:28;35.58;;;21.08;;
23044;SDS011;11690;51.716;23.066;2022-10-30T07:38:13;35.97;;;20.73;;
23044;SDS011;11690;51.716;23.066;2022-10-30T07:40:51;34.53;;;19.75;;
23044;SDS011;11690;51.716;23.066;2022-10-30T07:43:51;34.45;;;19.55;;
23044;SDS011;11690;51.716;23.066;2022-10-30T07:46:35;30.00;;;19.15;;
23044;SDS011;11690;51.716;23.066;2022-10-30T07:49:29;27.92;;;19.45;;
23044;SDS011;11690;51.716;23.066;2022-10-30T07:52:00;30.00;;;18.08;;
23044;SDS011;11690;51.716;23.066;2022-10-30T07:54:28;29.48;;;18.98;;
23044;SDS011;11690;51.716;23.066;2022-10-30T07:57:01;28.00;;;18.67;;
23044;SDS011;11690;51.716;23.066;2022-10-30T07:59:47;28.77;;;17.30;;
23044;SDS011;11690;51.716;23.066;2022-10-30T08:02:38;33.47;;;18.17;;
23044;SDS011;11690;51.716;23.066;2022-10-30T08:05:31;26.85;;;15.35;;
23044;SDS011;11690;51.716;23.066;2022-10-30T08:08:05;25.15;;;14.73;;
23044;SDS011;11690;51.716;23.066;2022-10-30T08:10:32;28.27;;;17.15;;
23044;SDS011;11690;51.716;23.066;2022-10-30T08:13:01;32.08;;;17.13;;
23044;SDS011;11690;51.716;23.066;2022-10-30T08:15:28;28.45;;;17.10;;
23044;SDS011;11690;51.716;23.066;2022-10-30T08:17:55;21.90;;;14.18;;
23044;SDS011;11690;51.716;23.066;2022-10-30T08:20:24;20.42;;;11.80;;
23044;SDS011;11690;51.716;23.066;2022-10-30T08:22:53;17.90;;;12.10;;
23044;SDS011;11690;51.716;23.066;2022-10-30T08:25:25;21.42;;;12.55;;
23044;SDS011;11690;51.716;23.066;2022-10-30T08:30:30;24.15;;;12.93;;
23044;SDS011;11690;51.716;23.066;2022-10-30T08:33:03;17.85;;;11.20;;
23044;SDS011;11690;51.716;23.066;2022-10-30T08:35:48;21.48;;;11.38;;
23044;SDS011;11690;51.716;23.066;2022-10-30T08:38:16;21.20;;;12.52;;
23044;SDS011;11690;51.716;23.066;2022-10-30T08:40:49;17.70;;;10.45;;
23044;SDS011;11690;51.716;23.066;2022-10-30T08:43:17;20.15;;;11.02;;
23044;SDS011;11690;51.716;23.066;2022-10-30T08:45:44;18.23;;;11.85;;
23044;SDS011;11690;51.716;23.066;2022-10-30T08:48:14;15.90;;;10.02;;
23044;SDS011;11690;51.716;23.066;2022-10-30T08:50:43;16.90;;;9.77;;
23044;SDS011;11690;51.716;23.066;2022-10-30T08:53:14;12.15;;;7.30;;
23044;SDS011;11690;51.716;23.066;2022-10-30T08:55:43;12.55;;;7.93;;
23044;SDS011;11690;51.716;23.066;2022-10-30T08:58:29;18.92;;;8.45;;
23044;SDS011;11690;51.716;23.066;2022-10-30T09:00:57;16.17;;;7.72;;
23044;SDS011;11690;51.716;23.066;2022-10-30T09:03:53;17.88;;;8.98;;
23044;SDS011;11690;51.716;23.066;2022-10-30T09:06:46;14.70;;;7.63;;
23044;SDS011;11690;51.716;23.066;2022-10-30T09:09:32;11.98;;;6.88;;
23044;SDS011;11690;51.716;23.066;2022-10-30T09:12:01;15.32;;;7.43;;
23044;SDS011;11690;51.716;23.066;2022-10-30T09:14:34;11.25;;;7.03;;
23044;SDS011;11690;51.716;23.066;2022-10-30T09:17:01;11.48;;;6.78;;
23044;SDS011;11690;51.716;23.066;2022-10-30T09:19:29;12.75;;;6.28;;
23044;SDS011;11690;51.716;23.066;2022-10-30T09:21:57;11.23;;;7.25;;
23044;SDS011;11690;51.716;23.066;2022-10-30T09:24:24;11.60;;;6.00;;
23044;SDS011;11690;51.716;23.066;2022-10-30T09:26:53;11.25;;;6.72;;
23044;SDS011;11690;51.716;23.066;2022-10-30T09:29:23;12.43;;;6.55;;
23044;SDS011;11690;51.716;23.066;2022-10-30T09:31:59;10.85;;;5.75;;
23044;SDS011;11690;51.716;23.066;2022-10-30T09:34:29;12.75;;;5.95;;
23044;SDS011;11690;51.716;23.066;2022-10-30T09:37:12;12.15;;;6.07;;
23044;SDS011;11690;51.716;23.066;2022-10-30T09:39:42;10.07;;;5.68;;
23044;SDS011;11690;51.716;23.066;2022-10-30T09:56:13;13.32;;;5.18;;
23044;SDS011;11690;51.716;23.066;2022-10-30T10:01:47;9.48;;;4.70;;
23044;SDS011;11690;51.716;23.066;2022-10-30T10:07:03;8.50;;;4.25;;
23044;SDS011;11690;51.716;23.066;2022-10-30T10:09:48;9.45;;;5.05;;
23044;SDS011;11690;51.716;23.066;2022-10-30T10:14:59;9.95;;;4.47;;
23044;SDS011;11690;51.716;23.066;2022-10-30T10:17:33;14.20;;;4.50;;
23044;SDS011;11690;51.716;23.066;2022-10-30T10:20:01;11.40;;;5.07;;
23044;SDS011;11690;51.716;23.066;2022-10-30T10:22:34;12.80;;;4.78;;
23044;SDS011;11690;51.716;23.066;2022-10-30T10:25:06;6.28;;;3.63;;
23044;SDS011;11690;51.716;23.066;2022-10-30T10:30:28;9.48;;;4.18;;
23044;SDS011;11690;51.716;23.066;2022-10-30T10:44:21;12.52;;;3.90;;
23044;SDS011;11690;51.716;23.066;2022-10-30T10:46:44;9.55;;;3.67;;
23044;SDS011;11690;51.716;23.066;2022-10-30T10:49:42;7.88;;;3.80;;
23044;SDS011;11690;51.716;23.066;2022-10-30T10:52:20;8.82;;;3.88;;
23044;SDS011;11690;51.716;23.066;2022-10-30T10:55:00;8.88;;;3.95;;
23044;SDS011;11690;51.716;23.066;2022-10-30T10:57:34;6.95;;;3.45;;
23044;SDS011;11690;51.716;23.066;2022-10-30T11:00:24;5.80;;;3.38;;
23044;SDS011;11690;51.716;23.066;2022-10-30T11:02:54;7.28;;;3.60;;
23044;SDS011;11690;51.716;23.066;2022-10-30T11:05:29;7.55;;;3.55;;
23044;SDS011;11690;51.716;23.066;2022-10-30T11:08:00;5.55;;;3.08;;
23044;SDS011;11690;51.716;23.066;2022-10-30T11:10:32;9.25;;;3.88;;
23044;SDS011;11690;51.716;23.066;2022-10-30T11:12:59;12.88;;;4.35;;
23044;SDS011;11690;51.716;23.066;2022-10-30T11:18:07;8.55;;;4.13;;
23044;SDS011;11690;51.716;23.066;2022-10-30T11:23:30;9.65;;;4.28;;
23044;SDS011;11690;51.716;23.066;2022-10-30T11:26:23;10.70;;;3.88;;
23044;SDS011;11690;51.716;23.066;2022-10-30T11:31:58;9.02;;;3.67;;
23044;SDS011;11690;51.716;23.066;2022-10-30T11:34:33;8.50;;;3.42;;
23044;SDS011;11690;51.716;23.066;2022-10-30T11:37:01;10.15;;;3.33;;
23044;SDS011;11690;51.716;23.066;2022-10-30T11:39:33;7.18;;;3.92;;
23044;SDS011;11690;51.716;23.066;2022-10-30T11:42:02;11.05;;;3.83;;
23044;SDS011;11690;51.716;23.066;2022-10-30T11:46:58;5.50;;;2.97;;
23044;SDS011;11690;51.716;23.066;2022-10-30T11:50:13;5.65;;;3.35;;
23044;SDS011;11690;51.716;23.066;2022-10-30T11:52:21;5.97;;;2.95;;
23044;SDS011;11690;51.716;23.066;2022-10-30T11:54:50;6.32;;;3.83;;
23044;SDS011;11690;51.716;23.066;2022-10-30T11:59:50;7.60;;;2.97;;
23044;SDS011;11690;51.716;23.066;2022-10-30T12:02:21;11.05;;;3.08;;
23044;SDS011;11690;51.716;23.066;2022-10-30T12:04:49;7.25;;;3.72;;
23044;SDS011;11690;51.716;23.066;2022-10-30T12:09:49;6.30;;;3.30;;
23044;SDS011;11690;51.716;23.066;2022-10-30T12:12:25;7.10;;;3.50;;
23044;SDS011;11690;51.716;23.066;2022-10-30T12:14:54;6.80;;;3.17;;
23044;SDS011;11690;51.716;23.066;2022-10-30T12:17:21;5.82;;;2.90;;
23044;SDS011;11690;51.716;23.066;2022-10-30T12:19:49;10.20;;;3.80;;
23044;SDS011;11690;51.716;23.066;2022-10-30T12:22:30;6.05;;;3.50;;
23044;SDS011;11690;51.716;23.066;2022-10-30T12:24:59;6.55;;;2.42;;
23044;SDS011;11690;51.716;23.066;2022-10-30T12:27:29;5.60;;;2.30;;
23044;SDS011;11690;51.716;23.066;2022-10-30T12:30:02;8.95;;;3.03;;
23044;SDS011;11690;51.716;23.066;2022-10-30T12:32:42;8.88;;;2.45;;
23044;SDS011;11690;51.716;23.066;2022-10-30T12:38:12;4.63;;;2.45;;
23044;SDS011;11690;51.716;23.066;2022-10-30T12:40:45;17.58;;;4.60;;
23044;SDS011;11690;51.716;23.066;2022-10-30T12:43:23;8.73;;;3.40;;
23044;SDS011;11690;51.716;23.066;2022-10-30T12:48:55;6.32;;;2.33;;
23044;SDS011;11690;51.716;23.066;2022-10-30T12:51:46;5.63;;;2.33;;
23044;SDS011;11690;51.716;23.066;2022-10-30T12:57:17;6.25;;;2.85;;
23044;SDS011;11690;51.716;23.066;2022-10-30T13:07:58;7.03;;;2.53;;
23044;SDS011;11690;51.716;23.066;2022-10-30T13:10:42;4.93;;;2.42;;
23044;SDS011;11690;51.716;23.066;2022-10-30T13:13:14;4.82;;;2.35;;
23044;SDS011;11690;51.716;23.066;2022-10-30T13:15:49;7.50;;;2.30;;
23044;SDS011;11690;51.716;23.066;2022-10-30T13:18:18;7.10;;;2.42;;
23044;SDS011;11690;51.716;23.066;2022-10-30T13:20:58;5.63;;;2.30;;
23044;SDS011;11690;51.716;23.066;2022-10-30T13:34:33;6.10;;;2.35;;
23044;SDS011;11690;51.716;23.066;2022-10-30T13:51:52;6.03;;;2.75;;
23044;SDS011;11690;51.716;23.066;2022-10-30T13:54:30;6.25;;;3.03;;
23044;SDS011;11690;51.716;23.066;2022-10-30T13:57:06;5.68;;;2.60;;
23044;SDS011;11690;51.716;23.066;2022-10-30T14:02:44;4.55;;;2.13;;
23044;SDS011;11690;51.716;23.066;2022-10-30T14:05:30;6.18;;;2.35;;
23044;SDS011;11690;51.716;23.066;2022-10-30T14:10:51;8.27;;;2.78;;
23044;SDS011;11690;51.716;23.066;2022-10-30T14:13:45;8.10;;;2.38;;
23044;SDS011;11690;51.716;23.066;2022-10-30T14:16:41;6.15;;;2.70;;
23044;SDS011;11690;51.716;23.066;2022-10-30T14:19:12;7.72;;;3.85;;
23044;SDS011;11690;51.716;23.066;2022-10-30T14:21:41;6.20;;;2.38;;
23044;SDS011;11690;51.716;23.066;2022-10-30T14:37:16;4.82;;;2.45;;
23044;SDS011;11690;51.716;23.066;2022-10-30T14:39:51;5.00;;;2.53;;
23044;SDS011;11690;51.716;23.066;2022-10-30T14:58:27;9.18;;;3.28;;
23044;SDS011;11690;51.716;23.066;2022-10-30T15:01:18;10.90;;;4.15;;
23044;SDS011;11690;51.716;23.066;2022-10-30T15:03:54;7.10;;;3.40;;
23044;SDS011;11690;51.716;23.066;2022-10-30T15:09:27;8.32;;;3.88;;
23044;SDS011;11690;51.716;23.066;2022-10-30T15:14:41;5.88;;;3.67;;
23044;SDS011;11690;51.716;23.066;2022-10-30T15:17:27;7.65;;;4.07;;
23044;SDS011;11690;51.716;23.066;2022-10-30T15:19:56;9.25;;;3.25;;
23044;SDS011;11690;51.716;23.066;2022-10-30T15:22:26;7.32;;;3.50;;
23044;SDS011;11690;51.716;23.066;2022-10-30T15:24:54;6.38;;;3.75;;
23044;SDS011;11690;51.716;23.066;2022-10-30T15:27:21;5.78;;;3.33;;
23044;SDS011;11690;51.716;23.066;2022-10-30T15:29:51;7.30;;;3.35;;
23044;SDS011;11690;51.716;23.066;2022-10-30T15:32:21;7.78;;;3.50;;
23044;SDS011;11690;51.716;23.066;2022-10-30T15:34:53;8.38;;;3.53;;
23044;SDS011;11690;51.716;23.066;2022-10-30T15:37:29;8.52;;;3.70;;
23044;SDS011;11690;51.716;23.066;2022-10-30T15:42:37;9.60;;;4.20;;
23044;SDS011;11690;51.716;23.066;2022-10-30T15:45:04;29.83;;;13.88;;
23044;SDS011;11690;51.716;23.066;2022-10-30T15:47:32;26.23;;;14.95;;
23044;SDS011;11690;51.716;23.066;2022-10-30T15:49:59;10.48;;;6.20;;
23044;SDS011;11690;51.716;23.066;2022-10-30T15:52:27;17.60;;;10.77;;
23044;SDS011;11690;51.716;23.066;2022-10-30T15:55:07;14.95;;;7.78;;
23044;SDS011;11690;51.716;23.066;2022-10-30T15:57:40;17.73;;;7.80;;
23044;SDS011;11690;51.716;23.066;2022-10-30T16:00:29;13.13;;;6.43;;
23044;SDS011;11690;51.716;23.066;2022-10-30T16:05:33;13.45;;;6.25;;
23044;SDS011;11690;51.716;23.066;2022-10-30T16:08:01;15.80;;;7.22;;
23044;SDS011;11690;51.716;23.066;2022-10-30T16:10:31;13.25;;;6.75;;
23044;SDS011;11690;51.716;23.066;2022-10-30T16:13:00;10.88;;;5.70;;
23044;SDS011;11690;51.716;23.066;2022-10-30T16:15:38;13.20;;;5.50;;
23044;SDS011;11690;51.716;23.066;2022-10-30T16:18:09;13.75;;;5.50;;
23044;SDS011;11690;51.716;23.066;2022-10-30T16:20:42;9.93;;;5.40;;
23044;SDS011;11690;51.716;23.066;2022-10-30T16:23:11;12.25;;;6.22;;
23044;SDS011;11690;51.716;23.066;2022-10-30T16:25:39;21.90;;;12.18;;
23044;SDS011;11690;51.716;23.066;2022-10-30T16:31:01;11.80;;;5.55;;
23044;SDS011;11690;51.716;23.066;2022-10-30T16:33:31;15.15;;;6.93;;
23044;SDS011;11690;51.716;23.066;2022-10-30T16:35:59;19.23;;;8.00;;
23044;SDS011;11690;51.716;23.066;2022-10-30T16:38:30;25.58;;;10.45;;
23044;SDS011;11690;51.716;23.066;2022-10-30T16:41:00;33.63;;;12.25;;
23044;SDS011;11690;51.716;23.066;2022-10-30T16:43:28;26.90;;;11.75;;
23044;SDS011;11690;51.716;23.066;2022-10-30T16:48:43;12.20;;;5.70;;
23044;SDS011;11690;51.716;23.066;2022-10-30T16:51:15;16.67;;;7.13;;
23044;SDS011;11690;51.716;23.066;2022-10-30T16:53:46;11.55;;;6.15;;
23044;SDS011;11690;51.716;23.066;2022-10-30T16:56:24;13.25;;;7.25;;
23044;SDS011;11690;51.716;23.066;2022-10-30T16:58:53;18.50;;;7.70;;
23044;SDS011;11690;51.716;23.066;2022-10-30T17:01:26;16.55;;;7.30;;
23044;SDS011;11690;51.716;23.066;2022-10-30T17:03:54;14.07;;;7.10;;
23044;SDS011;11690;51.716;23.066;2022-10-30T17:06:28;25.10;;;9.48;;
23044;SDS011;11690;51.716;23.066;2022-10-30T17:09:05;13.57;;;6.20;;
23044;SDS011;11690;51.716;23.066;2022-10-30T17:11:36;16.27;;;6.68;;
23044;SDS011;11690;51.716;23.066;2022-10-30T17:14:19;9.07;;;5.88;;
23044;SDS011;11690;51.716;23.066;2022-10-30T17:16:51;13.85;;;5.80;;
23044;SDS011;11690;51.716;23.066;2022-10-30T17:21:59;24.50;;;10.77;;
23044;SDS011;11690;51.716;23.066;2022-10-30T17:24:32;15.38;;;7.45;;
23044;SDS011;11690;51.716;23.066;2022-10-30T17:27:01;15.07;;;7.15;;
23044;SDS011;11690;51.716;23.066;2022-10-30T17:32:04;11.98;;;6.43;;
23044;SDS011;11690;51.716;23.066;2022-10-30T17:34:35;11.82;;;6.72;;
23044;SDS011;11690;51.716;23.066;2022-10-30T17:37:02;17.70;;;7.88;;
23044;SDS011;11690;51.716;23.066;2022-10-30T17:39:29;12.95;;;7.15;;
23044;SDS011;11690;51.716;23.066;2022-10-30T17:41:56;11.95;;;6.75;;
23044;SDS011;11690;51.716;23.066;2022-10-30T17:44:24;10.60;;;6.05;;